PVL927 KSYR-CYXU
Flight info
| Callsign | PVL927 |
|---|---|
| Flight time | 0h 50m |
| Altitude | 16000 |
| Route | SYR V483 DINES/N0321F240 DCT COLTS DCT ITPEG |
| Aircraft | DH8D/M-SDE2E3FGRY/H |
Departure
| Time | 2026-04-25 22:02 |
|---|---|
| Airport | Syracuse Hancock International Airport (KSYR) |
Arrival
| Time | 2026-04-25 22:52 |
|---|---|
| Airport | London International Airport (CYXU) |
| Time | Latitude | Longitude | Altitude | Speed | Heading |
|---|---|---|---|---|---|
| 2026-04-25 21:45 | 43.11116 | -76.12298 | 421 ft | 0 kts | 357° |
| 2026-04-25 21:58 | 43.11120 | -76.12302 | 421 ft | 2 kts | 302° |
| 2026-04-25 21:58 | 43.11101 | -76.12315 | 421 ft | 10 kts | 188° |
| 2026-04-25 21:58 | 43.11052 | -76.12419 | 420 ft | 10 kts | 265° |
| 2026-04-25 21:59 | 43.11050 | -76.12440 | 420 ft | 0 kts | 265° |
| 2026-04-25 22:00 | 43.10970 | -76.12498 | 421 ft | 14 kts | 226° |
| 2026-04-25 22:00 | 43.10941 | -76.12600 | 421 ft | 11 kts | 247° |
| 2026-04-25 22:00 | 43.10920 | -76.12629 | 421 ft | 0 kts | 200° |
| 2026-04-25 22:00 | 43.10834 | -76.12586 | 421 ft | 14 kts | 133° |
| 2026-04-25 22:01 | 43.10824 | -76.12517 | 421 ft | 0 kts | 89° |
| 2026-04-25 22:01 | 43.10825 | -76.12350 | 421 ft | 69 kts | 89° |
| 2026-04-25 22:02 | 43.10852 | -76.10764 | 786 ft | 157 kts | 92° |
| 2026-04-25 22:02 | 43.10888 | -76.09251 | 1677 ft | 169 kts | 90° |
| 2026-04-25 22:02 | 43.10970 | -76.07623 | 2511 ft | 183 kts | 89° |
| 2026-04-25 22:02 | 43.11075 | -76.05855 | 3325 ft | 197 kts | 89° |
| 2026-04-25 22:03 | 43.11201 | -76.03849 | 3732 ft | 227 kts | 88° |
| 2026-04-25 22:03 | 43.11324 | -76.01641 | 3865 ft | 233 kts | 88° |
| 2026-04-25 22:03 | 43.11439 | -75.99451 | 4096 ft | 234 kts | 89° |
| 2026-04-25 22:03 | 43.11741 | -75.97245 | 4639 ft | 238 kts | 68° |
| 2026-04-25 22:04 | 43.12888 | -75.95660 | 5211 ft | 245 kts | 29° |
| 2026-04-25 22:04 | 43.14547 | -75.95374 | 5795 ft | 249 kts | 350° |
| 2026-04-25 22:04 | 43.16024 | -75.96549 | 6378 ft | 250 kts | 311° |
| 2026-04-25 22:04 | 43.16739 | -75.98679 | 6981 ft | 248 kts | 282° |
| 2026-04-25 22:05 | 43.17022 | -76.00966 | 7566 ft | 248 kts | 277° |
| 2026-04-25 22:05 | 43.17247 | -76.03297 | 8152 ft | 249 kts | 277° |
| 2026-04-25 22:05 | 43.17462 | -76.05649 | 8732 ft | 250 kts | 277° |
| 2026-04-25 22:05 | 43.17672 | -76.08003 | 9306 ft | 252 kts | 277° |
| 2026-04-25 22:06 | 43.17882 | -76.10404 | 9887 ft | 254 kts | 277° |
| 2026-04-25 22:06 | 43.17982 | -76.11556 | 10168 ft | 254 kts | 277° |
| 2026-04-25 22:06 | 43.18086 | -76.12746 | 10457 ft | 259 kts | 277° |
| 2026-04-25 22:07 | 43.18302 | -76.15259 | 11057 ft | 274 kts | 277° |
| 2026-04-25 22:07 | 43.18449 | -76.16965 | 11447 ft | 280 kts | 277° |
| 2026-04-25 22:07 | 43.18756 | -76.20586 | 12232 ft | 290 kts | 277° |
| 2026-04-25 22:07 | 43.18989 | -76.23357 | 12809 ft | 294 kts | 277° |
| 2026-04-25 22:08 | 43.19222 | -76.26147 | 13376 ft | 299 kts | 276° |
| 2026-04-25 22:08 | 43.19456 | -76.28979 | 13939 ft | 301 kts | 276° |
| 2026-04-25 22:08 | 43.19694 | -76.31839 | 14503 ft | 303 kts | 276° |
| 2026-04-25 22:08 | 43.19929 | -76.34688 | 15068 ft | 304 kts | 276° |
| 2026-04-25 22:09 | 43.20163 | -76.37569 | 15627 ft | 305 kts | 276° |
| 2026-04-25 22:09 | 43.20399 | -76.40456 | 15867 ft | 315 kts | 276° |
| 2026-04-25 22:09 | 43.20649 | -76.43520 | 15933 ft | 328 kts | 276° |
| 2026-04-25 22:09 | 43.20809 | -76.46625 | 15930 ft | 333 kts | 270° |
| 2026-04-25 22:10 | 43.20633 | -76.49783 | 15955 ft | 331 kts | 265° |
| 2026-04-25 22:10 | 43.20403 | -76.52914 | 15911 ft | 334 kts | 265° |
| 2026-04-25 22:10 | 43.20166 | -76.56086 | 15918 ft | 334 kts | 265° |
| 2026-04-25 22:10 | 43.19928 | -76.59247 | 15927 ft | 335 kts | 265° |
| 2026-04-25 22:11 | 43.19690 | -76.62422 | 15921 ft | 333 kts | 265° |
| 2026-04-25 22:11 | 43.19455 | -76.65540 | 15927 ft | 331 kts | 264° |
| 2026-04-25 22:11 | 43.19217 | -76.68688 | 15924 ft | 330 kts | 264° |
| 2026-04-25 22:11 | 43.18984 | -76.71767 | 15924 ft | 330 kts | 264° |
| 2026-04-25 22:12 | 43.18749 | -76.74883 | 15916 ft | 329 kts | 264° |
| 2026-04-25 22:12 | 43.18512 | -76.78001 | 15918 ft | 328 kts | 264° |
| 2026-04-25 22:12 | 43.18279 | -76.81074 | 15916 ft | 326 kts | 264° |
| 2026-04-25 22:12 | 43.18122 | -76.83134 | 15922 ft | 327 kts | 264° |
| 2026-04-25 22:13 | 43.17806 | -76.87272 | 15910 ft | 328 kts | 264° |
| 2026-04-25 22:13 | 43.17571 | -76.90325 | 15918 ft | 325 kts | 264° |
| 2026-04-25 22:13 | 43.17334 | -76.93402 | 15915 ft | 325 kts | 264° |
| 2026-04-25 22:13 | 43.17095 | -76.96510 | 15914 ft | 324 kts | 264° |
| 2026-04-25 22:14 | 43.16860 | -76.99537 | 15920 ft | 325 kts | 264° |
| 2026-04-25 22:14 | 43.16620 | -77.02636 | 15919 ft | 325 kts | 264° |
| 2026-04-25 22:14 | 43.16380 | -77.05696 | 15920 ft | 325 kts | 264° |
| 2026-04-25 22:14 | 43.16140 | -77.08760 | 15922 ft | 325 kts | 264° |
| 2026-04-25 22:15 | 43.15899 | -77.11834 | 15922 ft | 325 kts | 264° |
| 2026-04-25 22:15 | 43.15656 | -77.14922 | 15918 ft | 324 kts | 264° |
| 2026-04-25 22:15 | 43.15416 | -77.17952 | 15973 ft | 322 kts | 265° |
| 2026-04-25 22:16 | 43.14930 | -77.24058 | 15991 ft | 324 kts | 265° |
| 2026-04-25 22:16 | 43.14684 | -77.27143 | 15990 ft | 325 kts | 265° |
| 2026-04-25 22:16 | 43.14437 | -77.30221 | 15990 ft | 326 kts | 265° |
| 2026-04-25 22:16 | 43.14191 | -77.33268 | 15992 ft | 326 kts | 265° |
| 2026-04-25 22:17 | 43.13940 | -77.36369 | 15994 ft | 326 kts | 265° |
| 2026-04-25 22:17 | 43.13688 | -77.39452 | 15986 ft | 326 kts | 265° |
| 2026-04-25 22:17 | 43.13443 | -77.42529 | 15990 ft | 325 kts | 265° |
| 2026-04-25 22:17 | 43.13195 | -77.45584 | 15984 ft | 326 kts | 265° |
| 2026-04-25 22:18 | 43.12944 | -77.48668 | 15981 ft | 327 kts | 265° |
| 2026-04-25 22:18 | 43.12690 | -77.51759 | 15977 ft | 327 kts | 265° |
| 2026-04-25 22:18 | 43.12438 | -77.54825 | 15980 ft | 328 kts | 265° |
| 2026-04-25 22:18 | 43.12181 | -77.57930 | 15970 ft | 328 kts | 265° |
| 2026-04-25 22:19 | 43.11923 | -77.61028 | 15994 ft | 327 kts | 265° |
| 2026-04-25 22:19 | 43.11666 | -77.64123 | 15991 ft | 328 kts | 266° |
| 2026-04-25 22:19 | 43.11407 | -77.67228 | 15990 ft | 329 kts | 265° |
| 2026-04-25 22:19 | 43.11148 | -77.70328 | 15991 ft | 330 kts | 265° |
| 2026-04-25 22:20 | 43.10886 | -77.73447 | 15986 ft | 331 kts | 265° |
| 2026-04-25 22:20 | 43.10621 | -77.76586 | 15983 ft | 331 kts | 265° |
| 2026-04-25 22:20 | 43.10361 | -77.79665 | 15977 ft | 326 kts | 265° |
| 2026-04-25 22:20 | 43.10101 | -77.82700 | 15978 ft | 317 kts | 265° |
| 2026-04-25 22:21 | 43.09846 | -77.85674 | 15981 ft | 311 kts | 265° |
| 2026-04-25 22:21 | 43.09598 | -77.88562 | 15974 ft | 307 kts | 265° |
| 2026-04-25 22:21 | 43.09352 | -77.91427 | 15973 ft | 304 kts | 266° |
| 2026-04-25 22:21 | 43.09104 | -77.94308 | 15972 ft | 301 kts | 266° |
| 2026-04-25 22:22 | 43.08860 | -77.97138 | 15971 ft | 300 kts | 266° |
| 2026-04-25 22:22 | 43.08615 | -77.99970 | 15991 ft | 299 kts | 267° |
| 2026-04-25 22:22 | 43.08374 | -78.02759 | 15974 ft | 300 kts | 268° |
| 2026-04-25 22:22 | 43.08127 | -78.05601 | 15970 ft | 299 kts | 268° |
| 2026-04-25 22:23 | 43.07883 | -78.08401 | 15958 ft | 299 kts | 269° |
| 2026-04-25 22:23 | 43.07637 | -78.11218 | 15964 ft | 299 kts | 269° |
| 2026-04-25 22:23 | 43.07390 | -78.14048 | 15953 ft | 299 kts | 268° |
| 2026-04-25 22:23 | 43.07142 | -78.16863 | 15953 ft | 299 kts | 269° |
| 2026-04-25 22:24 | 43.06894 | -78.19679 | 15958 ft | 299 kts | 269° |
| 2026-04-25 22:24 | 43.06644 | -78.22516 | 15971 ft | 299 kts | 269° |
| 2026-04-25 22:24 | 43.06395 | -78.25324 | 15963 ft | 300 kts | 269° |
| 2026-04-25 22:24 | 43.06144 | -78.28155 | 15965 ft | 300 kts | 269° |
| 2026-04-25 22:25 | 43.05894 | -78.30955 | 15967 ft | 300 kts | 269° |
| 2026-04-25 22:25 | 43.05642 | -78.33770 | 15943 ft | 300 kts | 269° |
| 2026-04-25 22:25 | 43.05387 | -78.36610 | 15945 ft | 300 kts | 270° |
| 2026-04-25 22:25 | 43.05134 | -78.39425 | 15944 ft | 299 kts | 269° |
| 2026-04-25 22:26 | 43.04881 | -78.42228 | 15966 ft | 299 kts | 269° |
| 2026-04-25 22:26 | 43.04626 | -78.45052 | 15956 ft | 300 kts | 269° |
| 2026-04-25 22:26 | 43.04368 | -78.47903 | 15958 ft | 300 kts | 269° |
| 2026-04-25 22:26 | 43.04113 | -78.50706 | 15957 ft | 300 kts | 270° |
| 2026-04-25 22:27 | 43.03855 | -78.53536 | 15950 ft | 300 kts | 270° |
| 2026-04-25 22:27 | 43.03596 | -78.56384 | 15955 ft | 307 kts | 270° |
| 2026-04-25 22:27 | 43.03332 | -78.59293 | 15955 ft | 313 kts | 270° |
| 2026-04-25 22:27 | 43.03060 | -78.62273 | 15957 ft | 317 kts | 270° |
| 2026-04-25 22:28 | 43.02785 | -78.65264 | 15957 ft | 320 kts | 269° |
| 2026-04-25 22:28 | 43.02504 | -78.68310 | 15958 ft | 323 kts | 269° |
| 2026-04-25 22:28 | 43.02224 | -78.71324 | 15958 ft | 324 kts | 269° |
| 2026-04-25 22:28 | 43.01937 | -78.74403 | 15961 ft | 325 kts | 269° |
| 2026-04-25 22:29 | 43.01652 | -78.77454 | 15963 ft | 328 kts | 269° |
| 2026-04-25 22:29 | 43.01361 | -78.80595 | 15962 ft | 334 kts | 270° |
| 2026-04-25 22:29 | 43.01069 | -78.83722 | 15965 ft | 338 kts | 270° |
| 2026-04-25 22:30 | 43.00462 | -78.90173 | 15957 ft | 343 kts | 270° |
| 2026-04-25 22:30 | 43.00157 | -78.93399 | 15957 ft | 344 kts | 270° |
| 2026-04-25 22:30 | 42.99850 | -78.96621 | 15957 ft | 345 kts | 270° |
| 2026-04-25 22:30 | 42.99644 | -78.98772 | 15963 ft | 346 kts | 270° |
| 2026-04-25 22:31 | 42.99228 | -79.03121 | 15956 ft | 346 kts | 270° |
| 2026-04-25 22:31 | 42.98912 | -79.06407 | 15957 ft | 346 kts | 270° |
| 2026-04-25 22:31 | 42.98598 | -79.09660 | 15959 ft | 346 kts | 270° |
| 2026-04-25 22:31 | 42.98285 | -79.12903 | 15958 ft | 346 kts | 270° |
| 2026-04-25 22:32 | 42.97971 | -79.16151 | 15959 ft | 346 kts | 270° |
| 2026-04-25 22:32 | 42.97657 | -79.19380 | 15968 ft | 345 kts | 270° |
| 2026-04-25 22:32 | 42.97341 | -79.22623 | 15964 ft | 346 kts | 270° |
| 2026-04-25 22:32 | 42.97024 | -79.25873 | 15956 ft | 346 kts | 270° |
| 2026-04-25 22:33 | 42.96708 | -79.29101 | 15949 ft | 346 kts | 270° |
| 2026-04-25 22:33 | 42.96388 | -79.32353 | 15957 ft | 345 kts | 270° |
| 2026-04-25 22:33 | 42.96180 | -79.35619 | 15966 ft | 341 kts | 274° |
| 2026-04-25 22:33 | 42.96073 | -79.38817 | 15971 ft | 342 kts | 275° |
| 2026-04-25 22:34 | 42.95965 | -79.42061 | 15969 ft | 342 kts | 275° |
| 2026-04-25 22:34 | 42.95862 | -79.45321 | 15972 ft | 341 kts | 275° |
| 2026-04-25 22:34 | 42.95763 | -79.48515 | 15924 ft | 342 kts | 275° |
| 2026-04-25 22:34 | 42.95660 | -79.51772 | 15698 ft | 340 kts | 275° |
| 2026-04-25 22:35 | 42.95557 | -79.54947 | 15417 ft | 338 kts | 275° |
| 2026-04-25 22:35 | 42.95451 | -79.58156 | 15116 ft | 337 kts | 275° |
| 2026-04-25 22:35 | 42.95345 | -79.61330 | 14820 ft | 336 kts | 275° |
| 2026-04-25 22:35 | 42.95238 | -79.64493 | 14531 ft | 334 kts | 276° |
| 2026-04-25 22:36 | 42.95131 | -79.67658 | 14232 ft | 333 kts | 275° |
| 2026-04-25 22:36 | 42.95024 | -79.70778 | 13937 ft | 332 kts | 275° |
| 2026-04-25 22:36 | 42.94915 | -79.73945 | 13640 ft | 331 kts | 275° |
| 2026-04-25 22:36 | 42.94807 | -79.77065 | 13348 ft | 331 kts | 275° |
| 2026-04-25 22:37 | 42.94698 | -79.80169 | 13052 ft | 330 kts | 275° |
| 2026-04-25 22:37 | 42.94588 | -79.83293 | 12758 ft | 329 kts | 275° |
| 2026-04-25 22:37 | 42.94478 | -79.86398 | 12468 ft | 328 kts | 275° |
| 2026-04-25 22:37 | 42.94367 | -79.89498 | 12171 ft | 328 kts | 274° |
| 2026-04-25 22:38 | 42.94256 | -79.92595 | 11865 ft | 327 kts | 274° |
| 2026-04-25 22:38 | 42.94143 | -79.95698 | 11574 ft | 327 kts | 274° |
| 2026-04-25 22:38 | 42.94030 | -79.98779 | 11283 ft | 326 kts | 274° |
| 2026-04-25 22:38 | 42.93917 | -80.01846 | 10981 ft | 326 kts | 274° |
| 2026-04-25 22:39 | 42.93802 | -80.04954 | 10676 ft | 325 kts | 274° |
| 2026-04-25 22:39 | 42.93687 | -80.08028 | 10377 ft | 325 kts | 274° |
| 2026-04-25 22:39 | 42.93572 | -80.11083 | 10085 ft | 324 kts | 274° |
| 2026-04-25 22:39 | 42.93457 | -80.14120 | 9774 ft | 323 kts | 274° |
| 2026-04-25 22:40 | 42.93339 | -80.17190 | 9479 ft | 321 kts | 273° |
| 2026-04-25 22:40 | 42.93221 | -80.20183 | 9175 ft | 309 kts | 273° |
| 2026-04-25 22:40 | 42.93105 | -80.23004 | 8890 ft | 296 kts | 273° |
| 2026-04-25 22:40 | 42.92992 | -80.25786 | 8594 ft | 286 kts | 273° |
| 2026-04-25 22:41 | 42.92886 | -80.28429 | 8314 ft | 279 kts | 273° |
| 2026-04-25 22:41 | 42.92781 | -80.31052 | 8046 ft | 273 kts | 273° |
| 2026-04-25 22:41 | 42.92679 | -80.33591 | 7784 ft | 269 kts | 273° |
| 2026-04-25 22:41 | 42.92577 | -80.36102 | 7532 ft | 265 kts | 273° |
| 2026-04-25 22:42 | 42.92477 | -80.38598 | 7274 ft | 262 kts | 273° |
| 2026-04-25 22:42 | 42.92377 | -80.41069 | 7035 ft | 260 kts | 273° |
| 2026-04-25 22:42 | 42.92278 | -80.43538 | 6778 ft | 258 kts | 273° |
| 2026-04-25 22:42 | 42.92179 | -80.45969 | 6515 ft | 257 kts | 272° |
| 2026-04-25 22:43 | 42.92081 | -80.48378 | 6260 ft | 256 kts | 272° |
| 2026-04-25 22:43 | 42.91981 | -80.50805 | 6007 ft | 255 kts | 272° |
| 2026-04-25 22:43 | 42.91882 | -80.53216 | 5752 ft | 255 kts | 272° |
| 2026-04-25 22:43 | 42.91782 | -80.55632 | 5493 ft | 254 kts | 272° |
| 2026-04-25 22:44 | 42.91682 | -80.58017 | 5239 ft | 254 kts | 272° |
| 2026-04-25 22:44 | 42.91581 | -80.60420 | 4975 ft | 254 kts | 272° |
| 2026-04-25 22:44 | 42.91480 | -80.62823 | 4709 ft | 253 kts | 272° |
| 2026-04-25 22:44 | 42.91378 | -80.65207 | 4446 ft | 254 kts | 271° |
| 2026-04-25 22:45 | 42.91278 | -80.67588 | 4195 ft | 254 kts | 271° |
| 2026-04-25 22:45 | 42.91175 | -80.69998 | 3939 ft | 254 kts | 271° |
| 2026-04-25 22:45 | 42.91071 | -80.72419 | 3676 ft | 254 kts | 271° |
| 2026-04-25 22:45 | 42.90968 | -80.74796 | 3427 ft | 254 kts | 270° |
| 2026-04-25 22:46 | 42.90863 | -80.77213 | 3175 ft | 254 kts | 270° |
| 2026-04-25 22:46 | 42.90758 | -80.79586 | 3052 ft | 249 kts | 270° |
| 2026-04-25 22:46 | 42.90655 | -80.81885 | 3010 ft | 241 kts | 270° |
| 2026-04-25 22:46 | 42.90554 | -80.84130 | 3000 ft | 234 kts | 270° |
| 2026-04-25 22:47 | 42.90456 | -80.86315 | 2996 ft | 228 kts | 270° |
| 2026-04-25 22:47 | 42.90359 | -80.88459 | 2994 ft | 224 kts | 270° |
| 2026-04-25 22:47 | 42.90264 | -80.90561 | 2996 ft | 220 kts | 270° |
| 2026-04-25 22:47 | 42.90171 | -80.92624 | 3002 ft | 217 kts | 271° |
| 2026-04-25 22:48 | 42.90080 | -80.94675 | 3001 ft | 214 kts | 271° |
| 2026-04-25 22:48 | 42.89990 | -80.96687 | 3001 ft | 212 kts | 271° |
| 2026-04-25 22:48 | 42.90116 | -80.98621 | 2976 ft | 201 kts | 298° |
| 2026-04-25 22:48 | 42.90961 | -81.00050 | 2946 ft | 189 kts | 324° |
| 2026-04-25 22:49 | 42.91938 | -81.01240 | 2902 ft | 189 kts | 324° |
| 2026-04-25 22:49 | 42.92933 | -81.02432 | 2774 ft | 195 kts | 324° |
| 2026-04-25 22:49 | 42.93995 | -81.03695 | 2484 ft | 207 kts | 323° |
| 2026-04-25 22:49 | 42.95094 | -81.05004 | 2177 ft | 213 kts | 322° |
| 2026-04-25 22:50 | 42.96204 | -81.06335 | 1895 ft | 209 kts | 322° |
| 2026-04-25 22:50 | 42.97263 | -81.07608 | 1802 ft | 196 kts | 322° |
| 2026-04-25 22:50 | 42.98246 | -81.08794 | 1797 ft | 182 kts | 322° |
| 2026-04-25 22:50 | 42.99227 | -81.09963 | 1823 ft | 194 kts | 322° |
| 2026-04-25 22:51 | 43.00254 | -81.11185 | 1767 ft | 194 kts | 322° |
| 2026-04-25 22:51 | 43.01205 | -81.12338 | 1478 ft | 175 kts | 321° |
| 2026-04-25 22:51 | 43.02075 | -81.13404 | 1098 ft | 162 kts | 320° |
| 2026-04-25 22:51 | 43.02870 | -81.14365 | 910 ft | 133 kts | 320° |
| 2026-04-25 22:52 | 43.03240 | -81.14817 | 908 ft | 57 kts | 319° |
| 2026-04-25 22:52 | 43.03344 | -81.15069 | 910 ft | 21 kts | 237° |
| 2026-04-25 22:52 | 43.03293 | -81.15147 | 909 ft | 0 kts | 226° |
| 2026-04-25 22:52 | 43.03292 | -81.15149 | 909 ft | 0 kts | 226° |
| 2026-04-25 22:53 | 43.03193 | -81.15076 | 908 ft | 28 kts | 137° |
| 2026-04-25 22:53 | 43.03028 | -81.14879 | 906 ft | 29 kts | 140° |
| 2026-04-25 22:53 | 43.02890 | -81.14714 | 906 ft | 28 kts | 138° |
| 2026-04-25 22:53 | 43.02750 | -81.14547 | 906 ft | 24 kts | 139° |
| 2026-04-25 22:54 | 43.02634 | -81.14406 | 908 ft | 20 kts | 139° |
| 2026-04-25 22:54 | 43.02537 | -81.14291 | 911 ft | 17 kts | 137° |
| 2026-04-25 22:54 | 43.02445 | -81.14178 | 913 ft | 16 kts | 141° |
| 2026-04-25 22:54 | 43.02349 | -81.14064 | 915 ft | 20 kts | 138° |
| 2026-04-25 22:55 | 43.02319 | -81.14018 | 916 ft | 0 kts | 116° |
| 2026-04-25 22:55 | 43.02314 | -81.13986 | 917 ft | 8 kts | 86° |
| 2026-04-25 22:55 | 43.02351 | -81.13908 | 918 ft | 19 kts | 49° |
| 2026-04-25 22:56 | 43.02559 | -81.13999 | 917 ft | 82 kts | 321° |
| 2026-04-25 22:56 | 43.03226 | -81.14771 | 1165 ft | 153 kts | 322° |
| 2026-04-25 22:56 | 43.04042 | -81.15807 | 1866 ft | 170 kts | 321° |
| 2026-04-25 22:56 | 43.04929 | -81.16951 | 2486 ft | 186 kts | 322° |
| 2026-04-25 22:57 | 43.05892 | -81.18239 | 2807 ft | 200 kts | 321° |
| 2026-04-25 22:57 | 43.06911 | -81.19639 | 2946 ft | 215 kts | 318° |